createdAt,value
2019-04-14T00:00:29.238Z,68.20
2019-04-14T00:03:11.130Z,68.30
2019-04-14T00:05:40.853Z,68.40
2019-04-14T00:08:11.299Z,68.50
2019-04-14T00:10:40.248Z,68.60
2019-04-14T00:13:09.124Z,68.60
2019-04-14T00:15:42.706Z,68.60
2019-04-14T00:18:09.675Z,68.20
2019-04-14T00:20:38.699Z,68.80
2019-04-14T00:23:08.771Z,68.90
2019-04-14T00:25:37.693Z,68.90
2019-04-14T00:28:07.347Z,69.10
2019-04-14T00:30:36.364Z,69.10
2019-04-14T00:33:06.295Z,69.10
2019-04-14T00:35:42.759Z,69.10
2019-04-14T00:38:21.825Z,69.20
2019-04-14T00:41:00.634Z,69.30
2019-04-14T00:43:35.991Z,69.40
2019-04-14T00:46:11.102Z,69.50
2019-04-14T00:48:40.945Z,69.50
2019-04-14T00:51:11.178Z,69.60
2019-04-14T00:53:40.326Z,69.80
2019-04-14T00:56:09.103Z,69.90
2019-04-14T00:58:38.947Z,70.00
2019-04-14T01:01:08.964Z,71.00
2019-04-14T01:03:38.024Z,70.40
2019-04-14T01:06:07.646Z,70.50
2019-04-14T01:08:36.688Z,70.60
2019-04-14T01:11:05.593Z,70.80
2019-04-14T01:13:35.385Z,71.20
2019-04-14T01:16:11.546Z,71.00
2019-04-14T01:18:34.941Z,71.20
2019-04-14T01:21:04.602Z,71.30
2019-04-14T01:23:34.706Z,71.30
2019-04-14T01:26:04.930Z,71.40
2019-04-14T01:28:33.943Z,71.50
2019-04-14T01:31:03.385Z,71.50
2019-04-14T01:33:33.595Z,71.70
2019-04-14T01:36:03.837Z,71.70
2019-04-14T01:38:32.838Z,71.80
2019-04-14T01:41:02.189Z,72.00
2019-04-14T01:43:32.110Z,72.10
2019-04-14T01:46:09.704Z,72.20
2019-04-14T01:48:32.459Z,72.30
2019-04-14T01:51:20.533Z,72.40
2019-04-14T01:54:10.626Z,72.60
2019-04-14T01:57:04.643Z,72.70
2019-04-14T01:59:34.659Z,72.80
2019-04-14T02:02:05.156Z,72.80
2019-04-14T02:04:33.974Z,72.90
2019-04-14T02:07:03.809Z,73.10
2019-04-14T02:09:33.593Z,73.10
2019-04-14T02:12:03.742Z,73.30
2019-04-14T02:14:32.831Z,73.30
2019-04-14T02:17:04.220Z,73.40
2019-04-14T02:19:32.751Z,73.30
2019-04-14T02:22:02.726Z,73.40
2019-04-14T02:24:32.984Z,73.40
2019-04-14T02:27:03.368Z,73.40
2019-04-14T02:29:33.911Z,73.40
2019-04-14T02:35:06.248Z,73.50
2019-04-14T02:40:20.924Z,73.90
2019-04-14T02:42:36.667Z,73.90
2019-04-14T02:45:00.700Z,73.90
2019-04-14T02:52:37.486Z,73.70
2019-04-14T02:55:15.866Z,73.80
2019-04-14T02:57:38.381Z,73.90
2019-04-14T03:00:09.133Z,73.80
2019-04-14T03:05:05.005Z,74.00
2019-04-14T03:07:36.116Z,74.00
2019-04-14T03:10:01.237Z,74.10
2019-04-14T03:12:38.428Z,74.10
2019-04-14T03:15:08.037Z,74.40
2019-04-14T03:18:24.458Z,74.30
2019-04-14T03:21:13.438Z,74.40
2019-04-14T03:24:12.752Z,74.60
2019-04-14T03:26:44.245Z,74.60
2019-04-14T03:29:20.589Z,74.70
2019-04-14T03:39:23.488Z,75.00
2019-04-14T03:41:54.798Z,75.10
2019-04-14T03:49:34.733Z,75.30
2019-04-14T03:51:57.948Z,75.30
2019-04-14T03:54:20.203Z,75.30
2019-04-14T03:56:48.927Z,75.40
2019-04-14T03:59:19.456Z,75.40
2019-04-14T04:01:49.934Z,75.50
2019-04-14T04:04:20.405Z,75.60
2019-04-14T04:06:50.874Z,75.60
2019-04-14T04:09:21.915Z,75.80
2019-04-14T04:11:52.055Z,75.90
2019-04-14T04:14:21.031Z,75.80
2019-04-14T04:16:59.372Z,75.90
2019-04-14T04:19:51.322Z,76.00
2019-04-14T04:22:48.619Z,76.10
2019-04-14T04:25:26.648Z,76.10
2019-04-14T04:28:16.723Z,76.20
2019-04-14T04:31:00.559Z,76.30
2019-04-14T04:33:37.229Z,76.40
2019-04-14T04:36:13.989Z,76.40
2019-04-14T04:39:06.018Z,76.50
2019-04-14T04:41:34.988Z,76.50
2019-04-14T04:44:05.080Z,76.50
2019-04-14T04:46:53.134Z,76.60
2019-04-14T04:49:26.036Z,76.50
2019-04-14T04:51:53.036Z,76.50
2019-04-14T04:54:22.099Z,76.70
2019-04-14T04:56:53.768Z,76.60
2019-04-14T04:59:23.472Z,76.80
2019-04-14T05:01:53.774Z,76.70
2019-04-14T05:04:22.800Z,76.70
2019-04-14T05:07:01.653Z,76.70
2019-04-14T05:10:05.116Z,76.80
2019-04-14T05:12:50.170Z,76.90
2019-04-14T05:15:42.314Z,76.90
2019-04-14T05:18:16.178Z,76.90
2019-04-14T05:20:46.321Z,77.00
2019-04-14T05:23:15.404Z,77.00
2019-04-14T05:25:45.224Z,77.10
2019-04-14T05:28:15.465Z,77.10
2019-04-14T05:30:45.728Z,77.10
2019-04-14T05:33:14.648Z,77.30
2019-04-14T05:35:44.524Z,77.10
2019-04-14T05:38:14.663Z,77.10
2019-04-14T05:40:43.595Z,77.10
2019-04-14T05:43:17.120Z,77.10
2019-04-14T05:45:43.691Z,77.10
2019-04-14T05:48:13.845Z,77.20
2019-04-14T05:50:42.956Z,77.30
2019-04-14T05:53:13.140Z,77.20
2019-04-14T05:55:42.167Z,77.20
2019-04-14T05:58:12.155Z,77.30
2019-04-14T06:00:43.817Z,77.20
2019-04-14T06:03:14.559Z,77.20
2019-04-14T06:05:43.541Z,77.20
2019-04-14T06:08:12.539Z,77.10
2019-04-14T06:10:41.473Z,77.20
2019-04-14T06:13:11.788Z,77.10
2019-04-14T06:15:40.928Z,77.10
2019-04-14T06:18:09.852Z,77.00
2019-04-14T06:20:38.659Z,77.00
2019-04-14T06:23:07.550Z,77.00
2019-04-14T06:25:36.784Z,77.00
2019-04-14T06:28:05.743Z,77.00
2019-04-14T06:31:09.216Z,76.90
2019-04-14T06:33:55.955Z,76.80
2019-04-14T06:36:43.963Z,76.70
2019-04-14T06:39:16.603Z,76.70
2019-04-14T06:41:45.628Z,77.20
2019-04-14T06:44:14.585Z,76.50
2019-04-14T06:46:43.589Z,76.40
2019-04-14T06:49:12.547Z,76.50
2019-04-14T06:51:41.545Z,76.30
2019-04-14T06:54:10.464Z,76.20
2019-04-14T06:56:39.218Z,76.20
2019-04-14T06:59:08.236Z,76.20
2019-04-14T07:01:39.004Z,76.00
2019-04-14T07:04:07.928Z,75.50
2019-04-14T07:06:36.884Z,75.90
2019-04-14T07:09:06.914Z,75.80
2019-04-14T07:11:35.835Z,75.80
2019-04-14T07:14:04.744Z,75.60
2019-04-14T07:16:33.697Z,75.50
2019-04-14T07:19:02.575Z,75.40
2019-04-14T07:21:31.471Z,75.20
2019-04-14T07:24:00.448Z,75.10
2019-04-14T07:26:29.263Z,75.00
2019-04-14T07:28:58.293Z,74.80
2019-04-14T07:31:39.957Z,74.60
2019-04-14T07:34:26.780Z,74.60
2019-04-14T07:37:19.116Z,74.30
2019-04-14T07:39:57.462Z,74.20
2019-04-14T07:42:48.672Z,74.00
2019-04-14T07:45:36.771Z,73.70
2019-04-14T07:48:11.491Z,73.40
2019-04-14T07:51:01.987Z,73.10
2019-04-14T07:53:45.225Z,73.00
2019-04-14T07:56:32.333Z,72.60
2019-04-14T07:59:20.324Z,72.10
2019-04-14T08:02:14.393Z,71.70
2019-04-14T08:04:51.597Z,71.30
2019-04-14T08:07:20.752Z,70.50
2019-04-14T08:09:49.685Z,69.60
2019-04-14T08:12:18.591Z,68.30
2019-04-14T08:14:47.421Z,67.00
2019-04-14T08:17:16.403Z,65.20
2019-04-14T08:19:45.324Z,63.20
2019-04-14T08:22:14.304Z,61.00
2019-04-14T08:24:43.324Z,58.90
2019-04-14T08:27:12.392Z,57.20
2019-04-14T08:29:41.384Z,55.70
2019-04-14T08:32:10.321Z,54.30
2019-04-14T08:34:39.287Z,53.00
2019-04-14T08:37:08.240Z,51.80
2019-04-14T08:39:37.146Z,51.10
2019-04-14T08:42:31.277Z,50.50
2019-04-14T08:45:06.105Z,49.80
2019-04-14T08:48:00.027Z,49.00
2019-04-14T08:50:39.621Z,48.50
2019-04-14T08:53:10.296Z,48.00
2019-04-14T08:55:56.893Z,47.60
2019-04-14T08:58:44.040Z,47.30
2019-04-14T09:01:25.943Z,47.20
2019-04-14T09:04:04.872Z,47.10
2019-04-14T09:07:01.911Z,46.80
2019-04-14T09:09:34.502Z,46.60
2019-04-14T09:12:15.522Z,46.40
2019-04-14T09:14:37.233Z,46.10
2019-04-14T09:17:07.529Z,45.90
2019-04-14T09:19:36.388Z,45.70
2019-04-14T09:22:05.257Z,45.50
2019-04-14T09:24:34.128Z,45.20
2019-04-14T09:27:03.184Z,45.10
2019-04-14T09:29:32.013Z,45.50
2019-04-14T09:32:01.176Z,44.60
2019-04-14T09:34:30.064Z,44.20
2019-04-14T09:36:58.887Z,44.00
2019-04-14T09:39:27.827Z,43.80
2019-04-14T09:41:56.743Z,43.50
2019-04-14T09:44:25.617Z,43.30
2019-04-14T09:46:54.515Z,43.00
2019-04-14T09:49:23.441Z,42.90
2019-04-14T09:51:52.353Z,42.80
2019-04-14T09:54:21.225Z,42.60
2019-04-14T09:56:50.188Z,42.70
2019-04-14T09:59:19.192Z,42.70
2019-04-14T10:01:48.117Z,42.70
2019-04-14T10:04:17.147Z,42.50
2019-04-14T10:06:46.002Z,42.50
2019-04-14T10:09:15.057Z,42.40
2019-04-14T10:11:48.996Z,42.20
2019-04-14T10:14:14.596Z,42.00
2019-04-14T10:16:43.430Z,41.90
2019-04-14T10:19:12.235Z,41.90
2019-04-14T10:21:41.233Z,41.80
2019-04-14T10:24:10.212Z,41.70
2019-04-14T10:26:39.041Z,41.40
2019-04-14T10:29:07.891Z,41.30
2019-04-14T10:31:36.768Z,41.70
2019-04-14T10:34:05.657Z,40.90
2019-04-14T10:36:34.640Z,41.20
2019-04-14T10:39:05.425Z,41.00
2019-04-14T10:41:34.201Z,40.70
2019-04-14T10:44:03.125Z,40.70
2019-04-14T10:46:32.102Z,40.50
2019-04-14T10:49:01.016Z,39.90
2019-04-14T10:51:33.727Z,40.20
2019-04-14T10:54:00.699Z,40.00
2019-04-14T10:56:29.664Z,39.70
2019-04-14T10:58:58.492Z,39.50
2019-04-14T11:01:27.453Z,39.40
2019-04-14T11:03:56.473Z,39.20
2019-04-14T11:06:50.556Z,39.00
2019-04-14T11:09:19.501Z,39.00
2019-04-14T11:11:48.505Z,38.80
2019-04-14T11:14:17.368Z,38.50
2019-04-14T11:16:46.243Z,38.20
2019-04-14T11:19:15.165Z,38.20
2019-04-14T11:21:44.056Z,38.00
2019-04-14T11:24:12.935Z,37.80
2019-04-14T11:26:41.789Z,37.50
2019-04-14T11:29:10.589Z,37.30
2019-04-14T11:32:10.429Z,37.10
2019-04-14T11:35:01.308Z,36.80
2019-04-14T11:37:46.232Z,36.70
2019-04-14T11:40:18.092Z,36.60
2019-04-14T11:42:52.483Z,36.40
2019-04-14T11:45:17.672Z,36.30
2019-04-14T11:47:46.643Z,36.20
2019-04-14T11:50:17.024Z,36.10
2019-04-14T11:52:45.957Z,36.00
2019-04-14T11:55:14.763Z,36.00
2019-04-14T11:57:43.722Z,35.70
2019-04-14T12:00:43.937Z,35.40
2019-04-14T12:03:32.484Z,35.30
2019-04-14T12:06:23.655Z,35.20
2019-04-14T12:08:59.293Z,35.10
2019-04-14T12:11:28.228Z,35.00
2019-04-14T12:13:57.216Z,34.80
2019-04-14T12:16:26.184Z,34.60
2019-04-14T12:18:55.068Z,35.10
2019-04-14T12:21:23.977Z,34.40
2019-04-14T12:23:52.927Z,34.40
2019-04-14T12:26:21.944Z,34.60
2019-04-14T12:28:51.562Z,34.50
2019-04-14T12:31:21.761Z,34.50
2019-04-14T12:33:50.838Z,34.40
2019-04-14T12:36:20.176Z,35.00
2019-04-14T12:38:49.040Z,34.40
2019-04-14T12:41:23.970Z,34.20
2019-04-14T12:44:13.889Z,34.30
2019-04-14T12:47:05.902Z,34.10
2019-04-14T12:49:40.396Z,34.00
2019-04-14T12:52:21.495Z,33.90
2019-04-14T12:54:46.705Z,33.80
2019-04-14T12:57:17.287Z,33.60
2019-04-14T12:59:46.176Z,33.60
2019-04-14T13:02:18.628Z,33.70
2019-04-14T13:04:47.784Z,33.70
2019-04-14T13:07:16.629Z,33.50
2019-04-14T13:09:45.451Z,33.30
2019-04-14T13:12:14.330Z,33.20
2019-04-14T13:14:43.188Z,33.00
2019-04-14T13:17:12.104Z,32.90
2019-04-14T13:19:41.231Z,32.70
2019-04-14T13:22:10.292Z,32.70
2019-04-14T13:24:39.601Z,32.50
2019-04-14T13:27:08.595Z,32.40
2019-04-14T13:29:37.478Z,32.20
2019-04-14T13:32:06.979Z,31.90
2019-04-14T13:34:35.954Z,31.60
2019-04-14T13:37:04.966Z,31.30
2019-04-14T13:39:33.893Z,31.20
2019-04-14T13:42:02.844Z,31.10
2019-04-14T13:44:31.712Z,30.90
2019-04-14T13:47:00.699Z,31.20
2019-04-14T13:49:29.627Z,31.20
2019-04-14T13:51:58.624Z,31.40
2019-04-14T13:54:27.543Z,31.40
2019-04-14T13:56:56.493Z,31.60
2019-04-14T13:59:25.521Z,31.80
2019-04-14T14:01:54.460Z,32.00
2019-04-14T14:04:23.401Z,32.00
2019-04-14T14:06:52.316Z,32.10
2019-04-14T14:09:21.224Z,32.20
2019-04-14T14:12:04.640Z,32.00
2019-04-14T14:15:01.604Z,31.80
2019-04-14T14:17:49.586Z,31.60
2019-04-14T14:20:25.297Z,31.60
2019-04-14T14:23:31.216Z,31.60
2019-04-14T14:26:03.313Z,31.50
2019-04-14T14:28:32.185Z,31.30
2019-04-14T14:31:01.044Z,31.40
2019-04-14T14:33:29.913Z,31.40
2019-04-14T14:35:58.749Z,31.60
2019-04-14T14:38:27.672Z,31.60
2019-04-14T14:40:59.459Z,31.30
2019-04-14T14:43:28.391Z,31.10
2019-04-14T14:46:19.105Z,31.30
2019-04-14T14:48:55.615Z,31.30
2019-04-14T14:51:32.108Z,31.40
2019-04-14T14:54:01.071Z,31.40
2019-04-14T14:56:30.038Z,31.40
2019-04-14T14:58:58.948Z,31.30
2019-04-14T15:01:28.040Z,31.20
2019-04-14T15:03:57.005Z,31.00
2019-04-14T15:06:25.986Z,30.90
2019-04-14T15:08:54.885Z,30.70
2019-04-14T15:11:23.834Z,30.60
2019-04-14T15:13:52.861Z,30.40
2019-04-14T15:16:21.874Z,30.20
2019-04-14T15:18:50.873Z,30.10
2019-04-14T15:21:19.851Z,30.00
2019-04-14T15:23:48.732Z,30.00
2019-04-14T15:26:17.791Z,30.00
2019-04-14T15:28:46.769Z,30.00
2019-04-14T15:31:15.651Z,30.10
2019-04-14T15:33:44.593Z,30.30
2019-04-14T15:36:13.528Z,30.40
2019-04-14T15:38:42.399Z,30.20
2019-04-14T15:41:11.339Z,30.00
2019-04-14T15:43:40.303Z,30.00
2019-04-14T15:46:09.376Z,30.00
2019-04-14T15:48:38.360Z,30.00
2019-04-14T15:51:07.337Z,29.70
2019-04-14T15:53:38.145Z,29.70
2019-04-14T15:56:07.569Z,29.50
2019-04-14T15:58:53.894Z,29.40
2019-04-14T16:01:48.649Z,29.40
2019-04-14T16:04:36.643Z,29.50
2019-04-14T16:07:15.664Z,29.70
2019-04-14T16:10:06.788Z,29.80
2019-04-14T16:12:42.056Z,29.90
2019-04-14T16:15:23.536Z,29.90
2019-04-14T16:18:11.559Z,30.00
2019-04-14T16:20:42.289Z,30.00
2019-04-14T16:23:11.251Z,30.10
2019-04-14T16:26:05.420Z,30.10
2019-04-14T16:29:00.334Z,30.20
2019-04-14T16:31:47.778Z,30.40
2019-04-14T16:34:20.456Z,30.60
2019-04-14T16:36:49.854Z,30.70
2019-04-14T16:39:18.817Z,30.80
2019-04-14T16:41:47.817Z,30.90
2019-04-14T16:44:16.744Z,30.90
2019-04-14T16:46:45.667Z,31.10
2019-04-14T16:49:14.640Z,31.10
2019-04-14T16:51:48.238Z,31.20
2019-04-14T16:54:25.241Z,31.40
2019-04-14T16:57:09.052Z,31.60
2019-04-14T16:59:37.941Z,31.70
2019-04-14T17:02:10.975Z,31.80
2019-04-14T17:04:39.094Z,32.10
2019-04-14T17:07:08.086Z,32.30
2019-04-14T17:09:37.048Z,33.30
2019-04-14T17:12:05.898Z,32.80
2019-04-14T17:14:42.633Z,33.20
2019-04-14T17:17:45.692Z,33.40
2019-04-14T17:20:33.624Z,33.60
2019-04-14T17:23:19.516Z,33.80
2019-04-14T17:26:05.587Z,34.00
2019-04-14T17:28:56.709Z,34.30
2019-04-14T17:32:02.672Z,34.50
2019-04-14T17:34:38.012Z,34.90
2019-04-14T17:37:20.812Z,35.20
2019-04-14T17:39:53.677Z,35.50
2019-04-14T17:42:29.244Z,35.70
2019-04-14T17:45:08.067Z,35.90
2019-04-14T17:47:51.515Z,36.10
2019-04-14T17:50:41.379Z,36.30
2019-04-14T17:53:30.808Z,36.60
2019-04-14T17:56:09.199Z,36.80
2019-04-14T17:58:58.869Z,37.20
2019-04-14T18:01:38.225Z,37.40
2019-04-14T18:04:15.454Z,37.70
2019-04-14T18:07:03.477Z,37.90
2019-04-14T18:09:49.820Z,38.20
2019-04-14T18:12:28.591Z,38.40
2019-04-14T18:15:05.220Z,38.70
2019-04-14T18:17:41.972Z,38.90
2019-04-14T18:20:15.851Z,39.10
2019-04-14T18:22:44.856Z,39.30
2019-04-14T18:25:13.887Z,39.50
2019-04-14T18:28:03.086Z,39.80
2019-04-14T18:30:36.226Z,40.00
2019-04-14T18:33:14.017Z,40.30
2019-04-14T18:36:05.045Z,40.50
2019-04-14T18:38:51.675Z,40.80
2019-04-14T18:41:48.746Z,41.10
2019-04-14T18:44:25.715Z,41.20
2019-04-14T18:47:25.652Z,41.50
2019-04-14T18:50:16.796Z,41.80
2019-04-14T18:53:00.152Z,42.10
2019-04-14T18:55:39.020Z,42.40
2019-04-14T18:58:23.369Z,42.60
2019-04-14T19:00:55.494Z,42.80
2019-04-14T19:03:24.299Z,43.10
2019-04-14T19:05:53.207Z,43.30
2019-04-14T19:08:22.216Z,43.40
2019-04-14T19:11:08.647Z,43.60
2019-04-14T19:13:37.788Z,43.70
2019-04-14T19:16:19.828Z,43.80
2019-04-14T19:18:51.417Z,43.80
2019-04-14T19:21:23.456Z,43.90
2019-04-14T19:23:53.691Z,44.00
2019-04-14T19:26:22.711Z,44.10
2019-04-14T19:28:51.778Z,44.30
2019-04-14T19:31:20.613Z,44.40
2019-04-14T19:33:49.669Z,44.50
2019-04-14T19:36:18.698Z,44.70
2019-04-14T19:38:47.691Z,44.80
2019-04-14T19:41:16.660Z,45.00
2019-04-14T19:43:45.697Z,45.20
2019-04-14T19:46:14.684Z,45.20
2019-04-14T19:48:43.733Z,45.40
2019-04-14T19:51:12.642Z,45.50
2019-04-14T19:53:41.538Z,45.60
2019-04-14T19:56:10.475Z,45.90
2019-04-14T19:58:39.351Z,46.00
2019-04-14T20:01:08.415Z,46.10
2019-04-14T20:03:37.382Z,46.20
2019-04-14T20:06:06.491Z,46.30
2019-04-14T20:08:35.546Z,46.40
2019-04-14T20:11:04.692Z,46.70
2019-04-14T20:13:38.375Z,46.70
2019-04-14T20:16:28.257Z,47.00
2019-04-14T20:19:19.389Z,47.10
2019-04-14T20:22:07.364Z,47.40
2019-04-14T20:25:01.300Z,47.50
2019-04-14T20:27:37.388Z,47.70
2019-04-14T20:30:13.884Z,47.90
2019-04-14T20:32:43.508Z,48.20
2019-04-14T20:35:31.744Z,48.40
2019-04-14T20:38:00.740Z,48.70
2019-04-14T20:40:29.683Z,49.00
2019-04-14T20:42:58.712Z,49.20
2019-04-14T20:45:27.669Z,49.60
2019-04-14T20:47:56.892Z,49.80
2019-04-14T20:50:25.826Z,50.10
2019-04-14T20:52:54.616Z,50.30
2019-04-14T20:55:23.547Z,50.60
2019-04-14T20:57:52.497Z,50.90
2019-04-14T21:00:22.081Z,50.90
2019-04-14T21:03:28.143Z,51.20
2019-04-14T21:06:14.143Z,51.40
2019-04-14T21:09:00.890Z,51.60
2019-04-14T21:11:34.115Z,51.90
2019-04-14T21:14:28.176Z,52.20
2019-04-14T21:17:15.300Z,52.50
2019-04-14T21:20:03.329Z,52.60
2019-04-14T21:22:50.044Z,52.80
2019-04-14T21:25:59.298Z,53.00
2019-04-14T21:28:35.797Z,53.20
2019-04-14T21:31:17.095Z,53.50
2019-04-14T21:33:57.624Z,53.70
2019-04-14T21:36:31.170Z,53.80
2019-04-14T21:39:10.706Z,54.00
2019-04-14T21:41:39.733Z,54.20
2019-04-14T21:44:09.861Z,54.40
2019-04-14T21:46:38.826Z,54.60
2019-04-14T21:49:07.708Z,54.80
2019-04-14T21:52:03.496Z,55.00
2019-04-14T21:54:33.742Z,55.10
2019-04-14T21:57:23.097Z,55.20
2019-04-14T22:00:19.518Z,55.40
2019-04-14T22:03:06.307Z,55.40
2019-04-14T22:06:03.646Z,55.40
2019-04-14T22:08:36.142Z,55.40
2019-04-14T22:11:07.939Z,55.50
2019-04-14T22:13:36.936Z,55.70
2019-04-14T22:16:06.185Z,55.80
2019-04-14T22:18:35.137Z,56.10
2019-04-14T22:21:04.194Z,56.20
2019-04-14T22:23:33.291Z,56.30
2019-04-14T22:26:02.114Z,56.50
2019-04-14T22:28:31.027Z,56.60
2019-04-14T22:31:00.099Z,56.80
2019-04-14T22:33:29.096Z,56.70
2019-04-14T22:35:58.040Z,56.90
2019-04-14T22:38:26.980Z,56.90
2019-04-14T22:40:56.025Z,57.00
2019-04-14T22:43:24.927Z,57.10
2019-04-14T22:45:53.844Z,57.30
2019-04-14T22:48:22.665Z,57.40
2019-04-14T22:50:51.565Z,57.50
2019-04-14T22:53:20.541Z,57.70
2019-04-14T22:55:49.509Z,57.80
2019-04-14T22:58:18.510Z,57.90
2019-04-14T23:00:57.255Z,57.90
2019-04-14T23:03:34.785Z,58.10
2019-04-14T23:06:22.737Z,58.10
2019-04-14T23:08:55.236Z,58.10
2019-04-14T23:11:47.250Z,58.20
2019-04-14T23:14:27.506Z,58.20
2019-04-14T23:17:14.346Z,58.30
2019-04-14T23:19:47.088Z,58.50
2019-04-14T23:22:22.707Z,58.60
2019-04-14T23:24:51.715Z,58.80
2019-04-14T23:27:20.699Z,58.90
2019-04-14T23:29:50.937Z,59.00
2019-04-14T23:32:20.020Z,59.00
2019-04-14T23:34:48.940Z,59.20
2019-04-14T23:37:18.188Z,59.30
2019-04-14T23:39:47.139Z,59.40
2019-04-14T23:42:16.136Z,59.50
2019-04-14T23:44:45.024Z,59.60
2019-04-14T23:47:13.937Z,59.60
2019-04-14T23:49:43.017Z,59.70
2019-04-14T23:52:11.933Z,59.90
2019-04-14T23:54:40.878Z,60.10
2019-04-14T23:57:09.819Z,60.40
2019-04-14T23:59:38.711Z,60.50
